sensor_id;sensor_type;location;lat;lon;timestamp;P1;durP1;ratioP1;P2;durP2;ratioP2
9438;SDS011;5176;42.622;25.386;2023-02-07T00:00:51;6.10;;;4.47;;
9438;SDS011;5176;42.622;25.386;2023-02-07T00:03:18;7.13;;;5.40;;
9438;SDS011;5176;42.622;25.386;2023-02-07T00:05:46;6.03;;;4.90;;
9438;SDS011;5176;42.622;25.386;2023-02-07T00:08:13;6.43;;;5.13;;
9438;SDS011;5176;42.622;25.386;2023-02-07T00:10:40;5.43;;;4.77;;
9438;SDS011;5176;42.622;25.386;2023-02-07T00:13:07;7.00;;;5.10;;
9438;SDS011;5176;42.622;25.386;2023-02-07T00:15:35;5.50;;;4.20;;
9438;SDS011;5176;42.622;25.386;2023-02-07T00:18:03;6.07;;;4.47;;
9438;SDS011;5176;42.622;25.386;2023-02-07T00:20:31;5.73;;;4.30;;
9438;SDS011;5176;42.622;25.386;2023-02-07T00:22:58;5.40;;;4.27;;
9438;SDS011;5176;42.622;25.386;2023-02-07T00:25:25;5.17;;;4.40;;
9438;SDS011;5176;42.622;25.386;2023-02-07T00:27:52;6.00;;;4.53;;
9438;SDS011;5176;42.622;25.386;2023-02-07T00:30:19;6.77;;;5.00;;
9438;SDS011;5176;42.622;25.386;2023-02-07T00:32:46;6.83;;;5.03;;
9438;SDS011;5176;42.622;25.386;2023-02-07T00:35:15;8.10;;;4.80;;
9438;SDS011;5176;42.622;25.386;2023-02-07T00:37:43;6.20;;;4.70;;
9438;SDS011;5176;42.622;25.386;2023-02-07T00:40:10;4.93;;;4.00;;
9438;SDS011;5176;42.622;25.386;2023-02-07T00:42:37;6.23;;;4.63;;
9438;SDS011;5176;42.622;25.386;2023-02-07T00:45:04;5.50;;;4.03;;
9438;SDS011;5176;42.622;25.386;2023-02-07T00:47:32;5.37;;;4.07;;
9438;SDS011;5176;42.622;25.386;2023-02-07T00:49:59;6.77;;;4.97;;
9438;SDS011;5176;42.622;25.386;2023-02-07T00:52:28;5.33;;;4.63;;
9438;SDS011;5176;42.622;25.386;2023-02-07T00:54:55;8.17;;;5.10;;
9438;SDS011;5176;42.622;25.386;2023-02-07T00:57:22;7.33;;;5.40;;
9438;SDS011;5176;42.622;25.386;2023-02-07T00:59:49;9.40;;;6.33;;
9438;SDS011;5176;42.622;25.386;2023-02-07T01:02:16;6.30;;;4.53;;
9438;SDS011;5176;42.622;25.386;2023-02-07T01:04:44;6.53;;;4.67;;
9438;SDS011;5176;42.622;25.386;2023-02-07T01:07:11;6.13;;;4.43;;
9438;SDS011;5176;42.622;25.386;2023-02-07T01:09:39;5.30;;;4.40;;
9438;SDS011;5176;42.622;25.386;2023-02-07T01:12:07;6.73;;;4.53;;
9438;SDS011;5176;42.622;25.386;2023-02-07T01:14:34;8.33;;;6.43;;
9438;SDS011;5176;42.622;25.386;2023-02-07T01:17:01;8.47;;;6.23;;
9438;SDS011;5176;42.622;25.386;2023-02-07T01:19:28;8.70;;;6.17;;
9438;SDS011;5176;42.622;25.386;2023-02-07T01:21:56;7.53;;;4.60;;
9438;SDS011;5176;42.622;25.386;2023-02-07T01:24:24;6.27;;;4.83;;
9438;SDS011;5176;42.622;25.386;2023-02-07T01:26:52;6.57;;;5.00;;
9438;SDS011;5176;42.622;25.386;2023-02-07T01:29:19;6.03;;;4.77;;
9438;SDS011;5176;42.622;25.386;2023-02-07T01:31:47;6.63;;;4.97;;
9438;SDS011;5176;42.622;25.386;2023-02-07T01:34:14;6.43;;;4.80;;
9438;SDS011;5176;42.622;25.386;2023-02-07T01:36:41;5.63;;;4.83;;
9438;SDS011;5176;42.622;25.386;2023-02-07T01:39:08;5.90;;;5.00;;
9438;SDS011;5176;42.622;25.386;2023-02-07T01:41:35;6.97;;;5.00;;
9438;SDS011;5176;42.622;25.386;2023-02-07T01:44:05;7.43;;;5.37;;
9438;SDS011;5176;42.622;25.386;2023-02-07T01:46:34;9.03;;;5.27;;
9438;SDS011;5176;42.622;25.386;2023-02-07T01:49:03;7.37;;;4.73;;
9438;SDS011;5176;42.622;25.386;2023-02-07T01:51:34;7.17;;;5.27;;
9438;SDS011;5176;42.622;25.386;2023-02-07T01:54:05;7.27;;;5.63;;
9438;SDS011;5176;42.622;25.386;2023-02-07T01:56:33;7.23;;;5.13;;
9438;SDS011;5176;42.622;25.386;2023-02-07T01:59:07;8.07;;;5.50;;
9438;SDS011;5176;42.622;25.386;2023-02-07T02:01:34;8.70;;;5.93;;
9438;SDS011;5176;42.622;25.386;2023-02-07T02:04:01;7.80;;;5.47;;
9438;SDS011;5176;42.622;25.386;2023-02-07T02:06:30;8.03;;;6.20;;
9438;SDS011;5176;42.622;25.386;2023-02-07T02:08:59;7.57;;;5.57;;
9438;SDS011;5176;42.622;25.386;2023-02-07T02:11:36;8.90;;;6.00;;
9438;SDS011;5176;42.622;25.386;2023-02-07T02:14:38;8.67;;;6.10;;
9438;SDS011;5176;42.622;25.386;2023-02-07T02:17:20;7.17;;;5.43;;
9438;SDS011;5176;42.622;25.386;2023-02-07T02:23:03;8.47;;;5.80;;
9438;SDS011;5176;42.622;25.386;2023-02-07T02:31:57;8.53;;;5.63;;
9438;SDS011;5176;42.622;25.386;2023-02-07T02:34:50;7.23;;;5.50;;
9438;SDS011;5176;42.622;25.386;2023-02-07T02:37:22;9.17;;;6.10;;
9438;SDS011;5176;42.622;25.386;2023-02-07T02:39:58;9.47;;;6.63;;
9438;SDS011;5176;42.622;25.386;2023-02-07T02:42:32;8.50;;;6.37;;
9438;SDS011;5176;42.622;25.386;2023-02-07T02:45:07;9.00;;;6.80;;
9438;SDS011;5176;42.622;25.386;2023-02-07T02:47:38;8.80;;;5.60;;
9438;SDS011;5176;42.622;25.386;2023-02-07T02:50:11;7.60;;;6.23;;
9438;SDS011;5176;42.622;25.386;2023-02-07T02:52:41;8.47;;;6.20;;
9438;SDS011;5176;42.622;25.386;2023-02-07T02:55:08;8.53;;;6.27;;
9438;SDS011;5176;42.622;25.386;2023-02-07T02:57:41;6.40;;;5.60;;
9438;SDS011;5176;42.622;25.386;2023-02-07T03:03:40;8.37;;;6.13;;
9438;SDS011;5176;42.622;25.386;2023-02-07T03:06:25;8.63;;;5.90;;
9438;SDS011;5176;42.622;25.386;2023-02-07T03:09:03;9.63;;;6.03;;
9438;SDS011;5176;42.622;25.386;2023-02-07T03:11:49;7.80;;;5.77;;
9438;SDS011;5176;42.622;25.386;2023-02-07T03:14:24;8.93;;;6.10;;
9438;SDS011;5176;42.622;25.386;2023-02-07T03:17:01;9.10;;;5.97;;
9438;SDS011;5176;42.622;25.386;2023-02-07T03:19:37;8.43;;;5.70;;
9438;SDS011;5176;42.622;25.386;2023-02-07T03:22:11;7.47;;;5.50;;
9438;SDS011;5176;42.622;25.386;2023-02-07T03:24:43;8.27;;;5.87;;
9438;SDS011;5176;42.622;25.386;2023-02-07T03:27:14;9.70;;;4.97;;
9438;SDS011;5176;42.622;25.386;2023-02-07T03:29:44;10.93;;;6.80;;
9438;SDS011;5176;42.622;25.386;2023-02-07T03:32:13;6.07;;;4.83;;
9438;SDS011;5176;42.622;25.386;2023-02-07T03:34:46;6.53;;;5.10;;
9438;SDS011;5176;42.622;25.386;2023-02-07T03:37:20;7.50;;;5.33;;
9438;SDS011;5176;42.622;25.386;2023-02-07T03:39:50;6.53;;;5.50;;
9438;SDS011;5176;42.622;25.386;2023-02-07T03:42:20;12.47;;;6.70;;
9438;SDS011;5176;42.622;25.386;2023-02-07T03:44:53;8.67;;;6.50;;
9438;SDS011;5176;42.622;25.386;2023-02-07T03:47:23;9.97;;;6.70;;
9438;SDS011;5176;42.622;25.386;2023-02-07T03:49:51;9.73;;;6.57;;
9438;SDS011;5176;42.622;25.386;2023-02-07T03:52:20;8.83;;;6.37;;
9438;SDS011;5176;42.622;25.386;2023-02-07T03:54:47;10.60;;;7.00;;
9438;SDS011;5176;42.622;25.386;2023-02-07T03:57:15;10.63;;;5.93;;
9438;SDS011;5176;42.622;25.386;2023-02-07T03:59:42;9.17;;;6.20;;
9438;SDS011;5176;42.622;25.386;2023-02-07T04:02:09;9.03;;;5.00;;
9438;SDS011;5176;42.622;25.386;2023-02-07T04:04:36;5.73;;;4.20;;
9438;SDS011;5176;42.622;25.386;2023-02-07T04:07:03;9.33;;;6.10;;
9438;SDS011;5176;42.622;25.386;2023-02-07T04:09:32;8.30;;;5.33;;
9438;SDS011;5176;42.622;25.386;2023-02-07T04:11:59;8.93;;;6.63;;
9438;SDS011;5176;42.622;25.386;2023-02-07T04:14:26;7.60;;;6.00;;
9438;SDS011;5176;42.622;25.386;2023-02-07T04:16:53;6.93;;;5.10;;
9438;SDS011;5176;42.622;25.386;2023-02-07T04:19:21;8.07;;;5.90;;
9438;SDS011;5176;42.622;25.386;2023-02-07T04:21:48;9.50;;;5.80;;
9438;SDS011;5176;42.622;25.386;2023-02-07T04:24:15;5.67;;;4.30;;
9438;SDS011;5176;42.622;25.386;2023-02-07T04:26:44;5.53;;;4.27;;
9438;SDS011;5176;42.622;25.386;2023-02-07T04:29:11;5.87;;;4.57;;
9438;SDS011;5176;42.622;25.386;2023-02-07T04:31:38;6.27;;;4.63;;
9438;SDS011;5176;42.622;25.386;2023-02-07T04:34:06;5.20;;;4.17;;
9438;SDS011;5176;42.622;25.386;2023-02-07T04:36:34;7.67;;;5.47;;
9438;SDS011;5176;42.622;25.386;2023-02-07T04:39:01;6.40;;;4.80;;
9438;SDS011;5176;42.622;25.386;2023-02-07T04:41:29;8.30;;;5.27;;
9438;SDS011;5176;42.622;25.386;2023-02-07T04:43:57;7.10;;;5.20;;
9438;SDS011;5176;42.622;25.386;2023-02-07T04:46:24;9.03;;;6.30;;
9438;SDS011;5176;42.622;25.386;2023-02-07T04:48:52;11.37;;;7.30;;
9438;SDS011;5176;42.622;25.386;2023-02-07T04:51:19;11.10;;;8.03;;
9438;SDS011;5176;42.622;25.386;2023-02-07T04:53:47;6.93;;;5.30;;
9438;SDS011;5176;42.622;25.386;2023-02-07T04:56:14;7.70;;;5.30;;
9438;SDS011;5176;42.622;25.386;2023-02-07T04:58:41;7.53;;;5.00;;
9438;SDS011;5176;42.622;25.386;2023-02-07T05:01:10;7.40;;;5.27;;
9438;SDS011;5176;42.622;25.386;2023-02-07T05:03:37;8.30;;;5.77;;
9438;SDS011;5176;42.622;25.386;2023-02-07T05:06:04;8.50;;;6.20;;
9438;SDS011;5176;42.622;25.386;2023-02-07T05:08:32;10.87;;;7.87;;
9438;SDS011;5176;42.622;25.386;2023-02-07T05:11:00;9.13;;;7.40;;
9438;SDS011;5176;42.622;25.386;2023-02-07T05:13:28;8.17;;;6.73;;
9438;SDS011;5176;42.622;25.386;2023-02-07T05:15:55;9.60;;;6.70;;
9438;SDS011;5176;42.622;25.386;2023-02-07T05:18:24;9.50;;;6.67;;
9438;SDS011;5176;42.622;25.386;2023-02-07T05:20:51;8.87;;;5.60;;
9438;SDS011;5176;42.622;25.386;2023-02-07T05:23:19;14.03;;;9.80;;
9438;SDS011;5176;42.622;25.386;2023-02-07T05:25:46;9.93;;;8.00;;
9438;SDS011;5176;42.622;25.386;2023-02-07T05:28:14;9.07;;;7.27;;
9438;SDS011;5176;42.622;25.386;2023-02-07T05:30:41;9.30;;;6.33;;
9438;SDS011;5176;42.622;25.386;2023-02-07T05:33:09;10.57;;;6.37;;
9438;SDS011;5176;42.622;25.386;2023-02-07T05:35:37;8.33;;;5.93;;
9438;SDS011;5176;42.622;25.386;2023-02-07T05:38:07;7.17;;;5.07;;
9438;SDS011;5176;42.622;25.386;2023-02-07T05:40:35;6.83;;;4.50;;
9438;SDS011;5176;42.622;25.386;2023-02-07T05:43:05;5.23;;;4.70;;
9438;SDS011;5176;42.622;25.386;2023-02-07T05:45:33;6.50;;;4.33;;
9438;SDS011;5176;42.622;25.386;2023-02-07T05:48:01;7.10;;;5.83;;
9438;SDS011;5176;42.622;25.386;2023-02-07T05:50:28;6.37;;;4.97;;
9438;SDS011;5176;42.622;25.386;2023-02-07T05:52:57;6.03;;;4.47;;
9438;SDS011;5176;42.622;25.386;2023-02-07T05:55:24;10.23;;;5.77;;
9438;SDS011;5176;42.622;25.386;2023-02-07T05:57:51;8.00;;;4.97;;
9438;SDS011;5176;42.622;25.386;2023-02-07T06:00:19;9.40;;;6.23;;
9438;SDS011;5176;42.622;25.386;2023-02-07T06:02:46;8.07;;;5.10;;
9438;SDS011;5176;42.622;25.386;2023-02-07T06:05:15;7.90;;;5.03;;
9438;SDS011;5176;42.622;25.386;2023-02-07T06:07:44;4.80;;;4.10;;
9438;SDS011;5176;42.622;25.386;2023-02-07T06:10:13;6.43;;;4.90;;
9438;SDS011;5176;42.622;25.386;2023-02-07T06:12:41;6.83;;;4.50;;
9438;SDS011;5176;42.622;25.386;2023-02-07T06:15:08;5.90;;;4.27;;
9438;SDS011;5176;42.622;25.386;2023-02-07T06:17:35;8.40;;;4.53;;
9438;SDS011;5176;42.622;25.386;2023-02-07T06:20:03;7.67;;;4.83;;
9438;SDS011;5176;42.622;25.386;2023-02-07T06:22:30;8.90;;;6.00;;
9438;SDS011;5176;42.622;25.386;2023-02-07T06:24:57;10.53;;;7.70;;
9438;SDS011;5176;42.622;25.386;2023-02-07T06:27:26;18.43;;;11.57;;
9438;SDS011;5176;42.622;25.386;2023-02-07T06:29:53;8.47;;;6.10;;
9438;SDS011;5176;42.622;25.386;2023-02-07T06:32:21;6.40;;;5.67;;
9438;SDS011;5176;42.622;25.386;2023-02-07T06:34:48;7.87;;;5.63;;
9438;SDS011;5176;42.622;25.386;2023-02-07T06:37:15;6.43;;;5.37;;
9438;SDS011;5176;42.622;25.386;2023-02-07T06:39:42;9.40;;;6.33;;
9438;SDS011;5176;42.622;25.386;2023-02-07T06:42:09;9.90;;;7.00;;
9438;SDS011;5176;42.622;25.386;2023-02-07T06:44:38;7.30;;;5.00;;
9438;SDS011;5176;42.622;25.386;2023-02-07T06:47:05;9.53;;;6.50;;
9438;SDS011;5176;42.622;25.386;2023-02-07T06:49:32;9.13;;;6.70;;
9438;SDS011;5176;42.622;25.386;2023-02-07T06:51:59;9.97;;;6.07;;
9438;SDS011;5176;42.622;25.386;2023-02-07T06:54:26;7.87;;;5.40;;
9438;SDS011;5176;42.622;25.386;2023-02-07T06:56:53;7.60;;;5.60;;
9438;SDS011;5176;42.622;25.386;2023-02-07T06:59:21;8.47;;;5.97;;
9438;SDS011;5176;42.622;25.386;2023-02-07T07:01:49;10.17;;;6.90;;
9438;SDS011;5176;42.622;25.386;2023-02-07T07:04:16;7.37;;;5.60;;
9438;SDS011;5176;42.622;25.386;2023-02-07T07:06:43;7.63;;;6.03;;
9438;SDS011;5176;42.622;25.386;2023-02-07T07:09:11;9.40;;;5.27;;
9438;SDS011;5176;42.622;25.386;2023-02-07T07:11:38;7.57;;;5.83;;
9438;SDS011;5176;42.622;25.386;2023-02-07T07:14:07;12.00;;;7.40;;
9438;SDS011;5176;42.622;25.386;2023-02-07T07:16:34;9.40;;;7.03;;
9438;SDS011;5176;42.622;25.386;2023-02-07T07:19:03;7.87;;;5.90;;
9438;SDS011;5176;42.622;25.386;2023-02-07T07:21:30;7.40;;;5.90;;
9438;SDS011;5176;42.622;25.386;2023-02-07T07:23:58;6.67;;;5.20;;
9438;SDS011;5176;42.622;25.386;2023-02-07T07:26:25;9.90;;;6.77;;
9438;SDS011;5176;42.622;25.386;2023-02-07T07:28:52;7.47;;;5.80;;
9438;SDS011;5176;42.622;25.386;2023-02-07T07:31:22;7.50;;;5.60;;
9438;SDS011;5176;42.622;25.386;2023-02-07T07:33:49;5.70;;;4.50;;
9438;SDS011;5176;42.622;25.386;2023-02-07T07:36:18;8.33;;;6.23;;
9438;SDS011;5176;42.622;25.386;2023-02-07T07:38:45;6.93;;;5.50;;
9438;SDS011;5176;42.622;25.386;2023-02-07T07:41:12;7.33;;;5.20;;
9438;SDS011;5176;42.622;25.386;2023-02-07T07:43:39;6.20;;;5.13;;
9438;SDS011;5176;42.622;25.386;2023-02-07T07:46:06;7.97;;;6.03;;
9438;SDS011;5176;42.622;25.386;2023-02-07T07:48:34;8.23;;;5.03;;
9438;SDS011;5176;42.622;25.386;2023-02-07T07:51:01;7.70;;;5.70;;
9438;SDS011;5176;42.622;25.386;2023-02-07T07:53:30;8.80;;;6.17;;
9438;SDS011;5176;42.622;25.386;2023-02-07T07:55:57;7.47;;;5.17;;
9438;SDS011;5176;42.622;25.386;2023-02-07T07:58:25;7.37;;;5.67;;
9438;SDS011;5176;42.622;25.386;2023-02-07T08:00:53;7.50;;;5.00;;
9438;SDS011;5176;42.622;25.386;2023-02-07T08:03:20;6.87;;;5.37;;
9438;SDS011;5176;42.622;25.386;2023-02-07T08:05:48;7.57;;;5.90;;
9438;SDS011;5176;42.622;25.386;2023-02-07T08:08:16;8.03;;;5.27;;
9438;SDS011;5176;42.622;25.386;2023-02-07T08:10:46;6.43;;;5.30;;
9438;SDS011;5176;42.622;25.386;2023-02-07T08:13:13;8.50;;;6.10;;
9438;SDS011;5176;42.622;25.386;2023-02-07T08:15:41;8.70;;;6.20;;
9438;SDS011;5176;42.622;25.386;2023-02-07T08:18:08;17.87;;;11.03;;
9438;SDS011;5176;42.622;25.386;2023-02-07T08:20:36;48.77;;;22.13;;
9438;SDS011;5176;42.622;25.386;2023-02-07T08:23:03;56.10;;;32.33;;
9438;SDS011;5176;42.622;25.386;2023-02-07T08:25:30;12.10;;;8.23;;
9438;SDS011;5176;42.622;25.386;2023-02-07T08:27:59;18.53;;;11.17;;
9438;SDS011;5176;42.622;25.386;2023-02-07T08:30:26;20.17;;;11.87;;
9438;SDS011;5176;42.622;25.386;2023-02-07T08:32:53;20.00;;;11.70;;
9438;SDS011;5176;42.622;25.386;2023-02-07T08:35:20;15.93;;;9.53;;
9438;SDS011;5176;42.622;25.386;2023-02-07T08:37:48;14.57;;;9.37;;
9438;SDS011;5176;42.622;25.386;2023-02-07T08:40:16;12.57;;;8.30;;
9438;SDS011;5176;42.622;25.386;2023-02-07T08:42:43;14.37;;;8.83;;
9438;SDS011;5176;42.622;25.386;2023-02-07T08:45:12;9.87;;;6.63;;
9438;SDS011;5176;42.622;25.386;2023-02-07T08:47:41;9.03;;;6.70;;
9438;SDS011;5176;42.622;25.386;2023-02-07T08:50:09;7.67;;;5.93;;
9438;SDS011;5176;42.622;25.386;2023-02-07T08:52:38;8.83;;;6.77;;
9438;SDS011;5176;42.622;25.386;2023-02-07T08:55:05;6.33;;;5.10;;
9438;SDS011;5176;42.622;25.386;2023-02-07T08:57:33;7.13;;;5.27;;
9438;SDS011;5176;42.622;25.386;2023-02-07T09:00:00;7.57;;;5.73;;
9438;SDS011;5176;42.622;25.386;2023-02-07T09:02:29;6.37;;;5.07;;
9438;SDS011;5176;42.622;25.386;2023-02-07T09:04:56;8.23;;;6.67;;
9438;SDS011;5176;42.622;25.386;2023-02-07T09:07:24;9.53;;;6.40;;
9438;SDS011;5176;42.622;25.386;2023-02-07T09:09:51;7.87;;;5.73;;
9438;SDS011;5176;42.622;25.386;2023-02-07T09:12:18;7.67;;;5.60;;
9438;SDS011;5176;42.622;25.386;2023-02-07T09:14:45;6.67;;;5.17;;
9438;SDS011;5176;42.622;25.386;2023-02-07T09:17:12;6.33;;;4.83;;
9438;SDS011;5176;42.622;25.386;2023-02-07T09:19:41;7.17;;;4.97;;
9438;SDS011;5176;42.622;25.386;2023-02-07T09:22:08;8.13;;;6.30;;
9438;SDS011;5176;42.622;25.386;2023-02-07T09:24:36;9.67;;;6.50;;
9438;SDS011;5176;42.622;25.386;2023-02-07T09:27:03;7.43;;;5.47;;
9438;SDS011;5176;42.622;25.386;2023-02-07T09:29:30;8.23;;;6.20;;
9438;SDS011;5176;42.622;25.386;2023-02-07T09:31:57;10.13;;;6.53;;
9438;SDS011;5176;42.622;25.386;2023-02-07T09:34:25;14.23;;;8.50;;
9438;SDS011;5176;42.622;25.386;2023-02-07T09:36:53;15.70;;;9.57;;
9438;SDS011;5176;42.622;25.386;2023-02-07T09:39:20;18.50;;;11.77;;
9438;SDS011;5176;42.622;25.386;2023-02-07T09:41:50;11.80;;;7.27;;
9438;SDS011;5176;42.622;25.386;2023-02-07T09:44:27;12.13;;;8.40;;
9438;SDS011;5176;42.622;25.386;2023-02-07T09:47:08;10.83;;;7.80;;
9438;SDS011;5176;42.622;25.386;2023-02-07T09:49:40;17.90;;;11.20;;
9438;SDS011;5176;42.622;25.386;2023-02-07T09:52:13;13.67;;;9.63;;
9438;SDS011;5176;42.622;25.386;2023-02-07T09:54:45;17.67;;;12.17;;
9438;SDS011;5176;42.622;25.386;2023-02-07T09:57:17;10.50;;;7.37;;
9438;SDS011;5176;42.622;25.386;2023-02-07T09:59:48;9.83;;;7.03;;
9438;SDS011;5176;42.622;25.386;2023-02-07T10:02:22;8.83;;;6.70;;
9438;SDS011;5176;42.622;25.386;2023-02-07T10:04:53;15.57;;;10.23;;
9438;SDS011;5176;42.622;25.386;2023-02-07T10:07:27;8.13;;;7.00;;
9438;SDS011;5176;42.622;25.386;2023-02-07T10:09:54;7.83;;;6.23;;
9438;SDS011;5176;42.622;25.386;2023-02-07T10:12:31;8.47;;;7.07;;
9438;SDS011;5176;42.622;25.386;2023-02-07T10:15:18;10.57;;;6.50;;
9438;SDS011;5176;42.622;25.386;2023-02-07T10:18:00;8.97;;;6.30;;
9438;SDS011;5176;42.622;25.386;2023-02-07T10:20:48;8.30;;;6.03;;
9438;SDS011;5176;42.622;25.386;2023-02-07T10:23:29;13.17;;;9.13;;
9438;SDS011;5176;42.622;25.386;2023-02-07T10:26:07;7.87;;;5.63;;
9438;SDS011;5176;42.622;25.386;2023-02-07T10:31:42;18.93;;;11.93;;
9438;SDS011;5176;42.622;25.386;2023-02-07T10:34:13;6.40;;;5.40;;
9438;SDS011;5176;42.622;25.386;2023-02-07T10:36:43;13.07;;;9.43;;
9438;SDS011;5176;42.622;25.386;2023-02-07T10:39:15;7.77;;;5.53;;
9438;SDS011;5176;42.622;25.386;2023-02-07T10:41:48;9.10;;;7.03;;
9438;SDS011;5176;42.622;25.386;2023-02-07T10:44:16;14.40;;;8.37;;
9438;SDS011;5176;42.622;25.386;2023-02-07T10:46:46;8.43;;;6.07;;
9438;SDS011;5176;42.622;25.386;2023-02-07T10:49:21;7.33;;;5.43;;
9438;SDS011;5176;42.622;25.386;2023-02-07T10:51:50;19.17;;;11.30;;
9438;SDS011;5176;42.622;25.386;2023-02-07T10:54:19;18.20;;;11.00;;
9438;SDS011;5176;42.622;25.386;2023-02-07T10:56:49;40.80;;;21.30;;
9438;SDS011;5176;42.622;25.386;2023-02-07T10:59:37;16.60;;;8.77;;
9438;SDS011;5176;42.622;25.386;2023-02-07T11:07:57;6.73;;;5.37;;
9438;SDS011;5176;42.622;25.386;2023-02-07T11:10:27;6.83;;;4.43;;
9438;SDS011;5176;42.622;25.386;2023-02-07T11:12:59;5.10;;;4.60;;
9438;SDS011;5176;42.622;25.386;2023-02-07T11:15:30;6.43;;;5.30;;
9438;SDS011;5176;42.622;25.386;2023-02-07T11:18:02;14.30;;;8.57;;
9438;SDS011;5176;42.622;25.386;2023-02-07T11:20:31;10.33;;;6.97;;
9438;SDS011;5176;42.622;25.386;2023-02-07T11:23:02;9.10;;;7.17;;
9438;SDS011;5176;42.622;25.386;2023-02-07T11:25:35;8.53;;;6.10;;
9438;SDS011;5176;42.622;25.386;2023-02-07T11:28:05;11.03;;;7.27;;
9438;SDS011;5176;42.622;25.386;2023-02-07T11:30:39;9.83;;;7.33;;
9438;SDS011;5176;42.622;25.386;2023-02-07T11:33:09;4.73;;;4.30;;
9438;SDS011;5176;42.622;25.386;2023-02-07T11:38:36;9.93;;;6.60;;
9438;SDS011;5176;42.622;25.386;2023-02-07T11:41:09;12.60;;;8.37;;
9438;SDS011;5176;42.622;25.386;2023-02-07T11:43:50;6.83;;;4.77;;
9438;SDS011;5176;42.622;25.386;2023-02-07T11:46:20;43.33;;;19.67;;
9438;SDS011;5176;42.622;25.386;2023-02-07T11:48:55;58.50;;;20.53;;
9438;SDS011;5176;42.622;25.386;2023-02-07T11:51:24;33.40;;;14.43;;
9438;SDS011;5176;42.622;25.386;2023-02-07T11:53:54;34.60;;;13.83;;
9438;SDS011;5176;42.622;25.386;2023-02-07T11:56:24;17.10;;;9.07;;
9438;SDS011;5176;42.622;25.386;2023-02-07T11:58:56;30.87;;;15.50;;
9438;SDS011;5176;42.622;25.386;2023-02-07T12:01:25;50.83;;;22.60;;
9438;SDS011;5176;42.622;25.386;2023-02-07T12:03:55;31.33;;;15.27;;
9438;SDS011;5176;42.622;25.386;2023-02-07T12:06:28;34.87;;;15.30;;
9438;SDS011;5176;42.622;25.386;2023-02-07T12:09:00;25.87;;;11.67;;
9438;SDS011;5176;42.622;25.386;2023-02-07T12:11:34;32.37;;;15.50;;
9438;SDS011;5176;42.622;25.386;2023-02-07T12:14:08;23.37;;;12.80;;
9438;SDS011;5176;42.622;25.386;2023-02-07T12:16:43;33.20;;;14.17;;
9438;SDS011;5176;42.622;25.386;2023-02-07T12:19:15;35.70;;;18.53;;
9438;SDS011;5176;42.622;25.386;2023-02-07T12:21:50;23.43;;;12.60;;
9438;SDS011;5176;42.622;25.386;2023-02-07T12:24:23;17.20;;;9.47;;
9438;SDS011;5176;42.622;25.386;2023-02-07T12:27:00;14.70;;;9.20;;
9438;SDS011;5176;42.622;25.386;2023-02-07T12:29:33;17.40;;;9.47;;
9438;SDS011;5176;42.622;25.386;2023-02-07T12:32:10;10.10;;;7.17;;
9438;SDS011;5176;42.622;25.386;2023-02-07T12:34:49;7.97;;;5.90;;
9438;SDS011;5176;42.622;25.386;2023-02-07T12:37:23;8.73;;;5.67;;
9438;SDS011;5176;42.622;25.386;2023-02-07T12:40:00;7.43;;;5.87;;
9438;SDS011;5176;42.622;25.386;2023-02-07T12:42:33;6.53;;;5.37;;
9438;SDS011;5176;42.622;25.386;2023-02-07T12:45:05;6.17;;;4.90;;
9438;SDS011;5176;42.622;25.386;2023-02-07T12:47:41;5.20;;;4.33;;
9438;SDS011;5176;42.622;25.386;2023-02-07T12:50:30;10.00;;;6.33;;
9438;SDS011;5176;42.622;25.386;2023-02-07T12:53:15;6.70;;;5.47;;
9438;SDS011;5176;42.622;25.386;2023-02-07T12:55:57;5.93;;;4.40;;
9438;SDS011;5176;42.622;25.386;2023-02-07T12:58:40;7.00;;;5.30;;
9438;SDS011;5176;42.622;25.386;2023-02-07T13:01:17;7.07;;;5.10;;
9438;SDS011;5176;42.622;25.386;2023-02-07T13:04:02;6.57;;;5.27;;
9438;SDS011;5176;42.622;25.386;2023-02-07T13:06:59;5.77;;;4.50;;
9438;SDS011;5176;42.622;25.386;2023-02-07T13:09:39;18.53;;;12.87;;
9438;SDS011;5176;42.622;25.386;2023-02-07T13:12:13;8.17;;;6.50;;
9438;SDS011;5176;42.622;25.386;2023-02-07T13:14:50;9.43;;;6.93;;
9438;SDS011;5176;42.622;25.386;2023-02-07T13:17:32;13.53;;;9.47;;
9438;SDS011;5176;42.622;25.386;2023-02-07T13:20:14;10.53;;;8.13;;
9438;SDS011;5176;42.622;25.386;2023-02-07T13:22:53;6.10;;;5.33;;
9438;SDS011;5176;42.622;25.386;2023-02-07T13:25:26;8.13;;;6.20;;
9438;SDS011;5176;42.622;25.386;2023-02-07T13:27:56;8.10;;;5.97;;
9438;SDS011;5176;42.622;25.386;2023-02-07T13:30:28;5.20;;;4.27;;
9438;SDS011;5176;42.622;25.386;2023-02-07T13:32:57;9.30;;;6.40;;
9438;SDS011;5176;42.622;25.386;2023-02-07T13:35:29;9.47;;;7.57;;
9438;SDS011;5176;42.622;25.386;2023-02-07T13:38:03;8.17;;;6.83;;
9438;SDS011;5176;42.622;25.386;2023-02-07T13:40:40;8.73;;;6.53;;
9438;SDS011;5176;42.622;25.386;2023-02-07T13:43:21;10.20;;;6.70;;
9438;SDS011;5176;42.622;25.386;2023-02-07T13:46:00;12.67;;;8.90;;
9438;SDS011;5176;42.622;25.386;2023-02-07T13:48:39;9.23;;;7.53;;
9438;SDS011;5176;42.622;25.386;2023-02-07T13:51:11;8.07;;;5.80;;
9438;SDS011;5176;42.622;25.386;2023-02-07T13:53:50;7.27;;;5.03;;
9438;SDS011;5176;42.622;25.386;2023-02-07T13:56:29;8.00;;;5.17;;
9438;SDS011;5176;42.622;25.386;2023-02-07T14:02:12;6.33;;;5.17;;
9438;SDS011;5176;42.622;25.386;2023-02-07T14:04:47;9.50;;;6.57;;
9438;SDS011;5176;42.622;25.386;2023-02-07T14:07:19;8.10;;;6.20;;
9438;SDS011;5176;42.622;25.386;2023-02-07T14:09:50;9.23;;;5.80;;
9438;SDS011;5176;42.622;25.386;2023-02-07T14:12:21;7.73;;;5.37;;
9438;SDS011;5176;42.622;25.386;2023-02-07T14:14:50;6.47;;;5.03;;
9438;SDS011;5176;42.622;25.386;2023-02-07T14:23:17;15.87;;;10.77;;
9438;SDS011;5176;42.622;25.386;2023-02-07T14:25:45;26.20;;;18.07;;
9438;SDS011;5176;42.622;25.386;2023-02-07T14:28:18;21.47;;;16.30;;
9438;SDS011;5176;42.622;25.386;2023-02-07T14:31:06;13.27;;;8.30;;
9438;SDS011;5176;42.622;25.386;2023-02-07T14:33:38;10.83;;;7.93;;
9438;SDS011;5176;42.622;25.386;2023-02-07T14:39:02;16.37;;;10.20;;
9438;SDS011;5176;42.622;25.386;2023-02-07T14:41:34;36.13;;;18.47;;
9438;SDS011;5176;42.622;25.386;2023-02-07T14:44:04;16.13;;;10.17;;
9438;SDS011;5176;42.622;25.386;2023-02-07T14:46:33;26.27;;;14.37;;
9438;SDS011;5176;42.622;25.386;2023-02-07T14:49:04;10.37;;;7.90;;
9438;SDS011;5176;42.622;25.386;2023-02-07T14:51:40;10.30;;;7.80;;
9438;SDS011;5176;42.622;25.386;2023-02-07T14:54:18;17.00;;;11.33;;
9438;SDS011;5176;42.622;25.386;2023-02-07T14:56:55;16.63;;;12.30;;
9438;SDS011;5176;42.622;25.386;2023-02-07T14:59:31;11.10;;;8.00;;
9438;SDS011;5176;42.622;25.386;2023-02-07T15:04:54;10.63;;;8.03;;
9438;SDS011;5176;42.622;25.386;2023-02-07T15:07:23;11.90;;;7.20;;
9438;SDS011;5176;42.622;25.386;2023-02-07T15:09:51;13.57;;;9.23;;
9438;SDS011;5176;42.622;25.386;2023-02-07T15:12:20;12.07;;;9.53;;
9438;SDS011;5176;42.622;25.386;2023-02-07T15:14:52;20.17;;;13.07;;
9438;SDS011;5176;42.622;25.386;2023-02-07T15:17:21;26.23;;;10.97;;
9438;SDS011;5176;42.622;25.386;2023-02-07T15:19:51;14.53;;;10.40;;
9438;SDS011;5176;42.622;25.386;2023-02-07T15:22:24;12.77;;;8.77;;
9438;SDS011;5176;42.622;25.386;2023-02-07T15:24:54;11.70;;;7.77;;
9438;SDS011;5176;42.622;25.386;2023-02-07T15:27:24;13.03;;;8.40;;
9438;SDS011;5176;42.622;25.386;2023-02-07T15:29:53;11.53;;;8.30;;
9438;SDS011;5176;42.622;25.386;2023-02-07T15:32:23;15.00;;;9.03;;
9438;SDS011;5176;42.622;25.386;2023-02-07T15:34:52;14.60;;;9.97;;
9438;SDS011;5176;42.622;25.386;2023-02-07T15:37:20;11.80;;;9.17;;
9438;SDS011;5176;42.622;25.386;2023-02-07T15:39:52;12.40;;;8.60;;
9438;SDS011;5176;42.622;25.386;2023-02-07T15:42:21;17.97;;;12.07;;
9438;SDS011;5176;42.622;25.386;2023-02-07T15:44:49;27.93;;;15.57;;
9438;SDS011;5176;42.622;25.386;2023-02-07T15:47:29;16.60;;;11.83;;
9438;SDS011;5176;42.622;25.386;2023-02-07T15:50:00;13.40;;;9.57;;
9438;SDS011;5176;42.622;25.386;2023-02-07T15:52:29;15.73;;;10.70;;
9438;SDS011;5176;42.622;25.386;2023-02-07T15:55:03;18.27;;;11.47;;